sensor_id;sensor_type;location;lat;lon;timestamp;P1;durP1;ratioP1;P2;durP2;ratioP2
2766;SDS011;1391;46.742;11.636;2022-12-07T07:39:38;7.30;;;4.60;;
2766;SDS011;1391;46.742;11.636;2022-12-07T07:42:06;2.70;;;2.47;;
2766;SDS011;1391;46.742;11.636;2022-12-07T07:44:33;3.10;;;2.40;;
2766;SDS011;1391;46.742;11.636;2022-12-07T07:47:00;4.67;;;2.60;;
2766;SDS011;1391;46.742;11.636;2022-12-07T07:49:28;8.60;;;4.23;;
2766;SDS011;1391;46.742;11.636;2022-12-07T07:51:55;9.40;;;5.37;;
2766;SDS011;1391;46.742;11.636;2022-12-07T07:54:22;9.07;;;5.00;;
2766;SDS011;1391;46.742;11.636;2022-12-07T07:56:51;8.27;;;4.50;;
2766;SDS011;1391;46.742;11.636;2022-12-07T07:59:18;6.57;;;3.87;;
2766;SDS011;1391;46.742;11.636;2022-12-07T08:01:46;5.97;;;3.90;;
2766;SDS011;1391;46.742;11.636;2022-12-07T08:04:13;4.63;;;3.37;;
2766;SDS011;1391;46.742;11.636;2022-12-07T08:06:41;5.20;;;3.17;;
2766;SDS011;1391;46.742;11.636;2022-12-07T08:09:08;4.80;;;3.17;;
2766;SDS011;1391;46.742;11.636;2022-12-07T08:11:36;4.33;;;3.13;;
2766;SDS011;1391;46.742;11.636;2022-12-07T08:14:04;5.57;;;3.07;;
2766;SDS011;1391;46.742;11.636;2022-12-07T08:16:31;2.77;;;2.57;;
2766;SDS011;1391;46.742;11.636;2022-12-07T08:18:58;6.13;;;2.50;;
2766;SDS011;1391;46.742;11.636;2022-12-07T08:21:26;2.57;;;2.10;;
2766;SDS011;1391;46.742;11.636;2022-12-07T08:23:53;5.20;;;2.20;;
2766;SDS011;1391;46.742;11.636;2022-12-07T08:26:20;4.20;;;2.30;;
2766;SDS011;1391;46.742;11.636;2022-12-07T08:28:47;5.10;;;2.17;;
2766;SDS011;1391;46.742;11.636;2022-12-07T08:31:16;3.40;;;2.57;;
2766;SDS011;1391;46.742;11.636;2022-12-07T08:33:44;4.70;;;2.57;;
2766;SDS011;1391;46.742;11.636;2022-12-07T08:36:12;3.27;;;2.27;;
2766;SDS011;1391;46.742;11.636;2022-12-07T08:38:40;3.23;;;2.30;;
2766;SDS011;1391;46.742;11.636;2022-12-07T08:41:08;6.73;;;2.20;;
2766;SDS011;1391;46.742;11.636;2022-12-07T08:43:35;2.70;;;2.00;;
2766;SDS011;1391;46.742;11.636;2022-12-07T08:46:07;4.97;;;2.47;;
2766;SDS011;1391;46.742;11.636;2022-12-07T08:48:40;4.93;;;2.63;;
2766;SDS011;1391;46.742;11.636;2022-12-07T08:51:10;7.17;;;2.30;;
2766;SDS011;1391;46.742;11.636;2022-12-07T08:53:38;8.67;;;2.30;;
2766;SDS011;1391;46.742;11.636;2022-12-07T08:56:06;2.73;;;2.27;;
2766;SDS011;1391;46.742;11.636;2022-12-07T08:58:33;3.57;;;2.60;;
2766;SDS011;1391;46.742;11.636;2022-12-07T09:01:02;3.87;;;2.40;;
2766;SDS011;1391;46.742;11.636;2022-12-07T09:03:30;2.97;;;2.30;;
2766;SDS011;1391;46.742;11.636;2022-12-07T09:05:59;5.73;;;2.23;;
2766;SDS011;1391;46.742;11.636;2022-12-07T09:08:28;11.27;;;2.73;;
2766;SDS011;1391;46.742;11.636;2022-12-07T09:10:59;3.27;;;2.27;;
2766;SDS011;1391;46.742;11.636;2022-12-07T09:13:27;2.70;;;2.13;;
2766;SDS011;1391;46.742;11.636;2022-12-07T09:15:54;4.33;;;2.20;;
2766;SDS011;1391;46.742;11.636;2022-12-07T09:18:22;2.70;;;2.00;;
2766;SDS011;1391;46.742;11.636;2022-12-07T09:20:50;2.63;;;2.10;;
2766;SDS011;1391;46.742;11.636;2022-12-07T09:23:19;6.23;;;2.13;;
2766;SDS011;1391;46.742;11.636;2022-12-07T09:25:46;6.90;;;2.70;;
2766;SDS011;1391;46.742;11.636;2022-12-07T09:28:14;3.47;;;2.40;;
2766;SDS011;1391;46.742;11.636;2022-12-07T09:30:44;5.70;;;2.13;;
2766;SDS011;1391;46.742;11.636;2022-12-07T09:33:13;4.90;;;2.30;;
2766;SDS011;1391;46.742;11.636;2022-12-07T09:35:43;7.57;;;3.10;;
2766;SDS011;1391;46.742;11.636;2022-12-07T09:38:12;3.23;;;2.17;;
2766;SDS011;1391;46.742;11.636;2022-12-07T09:40:41;3.50;;;2.10;;
2766;SDS011;1391;46.742;11.636;2022-12-07T09:43:11;6.73;;;2.47;;
2766;SDS011;1391;46.742;11.636;2022-12-07T09:45:41;2.50;;;1.73;;
2766;SDS011;1391;46.742;11.636;2022-12-07T09:48:14;2.47;;;1.80;;
2766;SDS011;1391;46.742;11.636;2022-12-07T09:50:45;2.30;;;1.90;;
2766;SDS011;1391;46.742;11.636;2022-12-07T09:53:14;7.80;;;2.33;;
2766;SDS011;1391;46.742;11.636;2022-12-07T09:55:53;8.47;;;3.03;;
2766;SDS011;1391;46.742;11.636;2022-12-07T09:58:21;5.27;;;3.93;;
2766;SDS011;1391;46.742;11.636;2022-12-07T10:00:52;7.73;;;3.67;;
2766;SDS011;1391;46.742;11.636;2022-12-07T10:03:22;26.07;;;5.23;;
2766;SDS011;1391;46.742;11.636;2022-12-07T10:05:50;2.40;;;1.93;;
2766;SDS011;1391;46.742;11.636;2022-12-07T10:08:18;3.97;;;2.70;;
2766;SDS011;1391;46.742;11.636;2022-12-07T10:10:47;4.87;;;3.27;;
2766;SDS011;1391;46.742;11.636;2022-12-07T10:13:20;3.30;;;2.70;;
2766;SDS011;1391;46.742;11.636;2022-12-07T10:15:50;4.93;;;2.73;;
2766;SDS011;1391;46.742;11.636;2022-12-07T10:18:20;3.07;;;2.33;;
2766;SDS011;1391;46.742;11.636;2022-12-07T10:21:08;4.07;;;2.10;;
2766;SDS011;1391;46.742;11.636;2022-12-07T10:23:40;5.50;;;1.90;;
2766;SDS011;1391;46.742;11.636;2022-12-07T10:26:26;2.23;;;1.70;;
2766;SDS011;1391;46.742;11.636;2022-12-07T10:28:59;4.97;;;2.10;;
2766;SDS011;1391;46.742;11.636;2022-12-07T10:31:39;9.23;;;5.33;;
2766;SDS011;1391;46.742;11.636;2022-12-07T10:34:14;8.27;;;5.30;;
2766;SDS011;1391;46.742;11.636;2022-12-07T10:36:49;9.20;;;4.60;;
2766;SDS011;1391;46.742;11.636;2022-12-07T10:39:18;6.83;;;3.07;;
2766;SDS011;1391;46.742;11.636;2022-12-07T10:41:52;5.63;;;3.47;;
2766;SDS011;1391;46.742;11.636;2022-12-07T10:44:24;4.07;;;3.13;;
2766;SDS011;1391;46.742;11.636;2022-12-07T10:47:01;4.13;;;2.40;;
2766;SDS011;1391;46.742;11.636;2022-12-07T10:49:51;2.50;;;2.10;;
2766;SDS011;1391;46.742;11.636;2022-12-07T10:55:31;4.53;;;2.00;;
2766;SDS011;1391;46.742;11.636;2022-12-07T10:58:17;5.33;;;2.27;;
2766;SDS011;1391;46.742;11.636;2022-12-07T11:01:03;1.97;;;1.73;;
2766;SDS011;1391;46.742;11.636;2022-12-07T11:03:43;3.40;;;2.03;;
2766;SDS011;1391;46.742;11.636;2022-12-07T11:06:25;3.17;;;2.70;;
2766;SDS011;1391;46.742;11.636;2022-12-07T11:09:02;3.87;;;2.03;;
2766;SDS011;1391;46.742;11.636;2022-12-07T11:11:52;2.07;;;1.60;;
2766;SDS011;1391;46.742;11.636;2022-12-07T11:14:31;2.00;;;1.17;;
2766;SDS011;1391;46.742;11.636;2022-12-07T11:17:09;1.63;;;1.53;;
2766;SDS011;1391;46.742;11.636;2022-12-07T11:19:49;3.90;;;2.03;;
2766;SDS011;1391;46.742;11.636;2022-12-07T11:22:33;1.37;;;1.27;;
2766;SDS011;1391;46.742;11.636;2022-12-07T11:25:18;2.57;;;1.90;;
2766;SDS011;1391;46.742;11.636;2022-12-07T11:27:59;2.50;;;1.50;;
2766;SDS011;1391;46.742;11.636;2022-12-07T11:30:47;4.43;;;1.60;;
2766;SDS011;1391;46.742;11.636;2022-12-07T11:33:26;3.00;;;1.80;;
2766;SDS011;1391;46.742;11.636;2022-12-07T11:36:06;2.23;;;1.30;;
2766;SDS011;1391;46.742;11.636;2022-12-07T11:38:52;4.40;;;1.80;;
2766;SDS011;1391;46.742;11.636;2022-12-07T11:41:23;4.20;;;1.80;;
2766;SDS011;1391;46.742;11.636;2022-12-07T11:43:57;3.80;;;1.70;;
2766;SDS011;1391;46.742;11.636;2022-12-07T11:46:31;3.93;;;1.87;;
2766;SDS011;1391;46.742;11.636;2022-12-07T11:49:13;3.03;;;1.87;;
2766;SDS011;1391;46.742;11.636;2022-12-07T11:51:47;5.83;;;2.20;;
2766;SDS011;1391;46.742;11.636;2022-12-07T11:54:19;2.57;;;1.40;;
2766;SDS011;1391;46.742;11.636;2022-12-07T11:56:51;3.63;;;1.77;;
2766;SDS011;1391;46.742;11.636;2022-12-07T11:59:23;1.40;;;1.30;;
2766;SDS011;1391;46.742;11.636;2022-12-07T12:01:58;1.43;;;1.33;;
2766;SDS011;1391;46.742;11.636;2022-12-07T12:04:45;2.43;;;2.17;;
2766;SDS011;1391;46.742;11.636;2022-12-07T12:07:21;2.57;;;2.37;;
2766;SDS011;1391;46.742;11.636;2022-12-07T12:09:52;1.87;;;1.40;;
2766;SDS011;1391;46.742;11.636;2022-12-07T12:12:35;0.87;;;0.87;;
2766;SDS011;1391;46.742;11.636;2022-12-07T12:15:51;1.50;;;1.40;;
2766;SDS011;1391;46.742;11.636;2022-12-07T12:18:42;3.70;;;2.87;;
2766;SDS011;1391;46.742;11.636;2022-12-07T12:21:25;8.27;;;3.83;;
2766;SDS011;1391;46.742;11.636;2022-12-07T12:23:55;2.60;;;2.40;;
2766;SDS011;1391;46.742;11.636;2022-12-07T12:26:27;2.63;;;2.43;;
2766;SDS011;1391;46.742;11.636;2022-12-07T12:28:57;3.73;;;2.60;;
2766;SDS011;1391;46.742;11.636;2022-12-07T12:31:32;2.40;;;2.20;;
2766;SDS011;1391;46.742;11.636;2022-12-07T12:52:48;2.10;;;1.70;;
2766;SDS011;1391;46.742;11.636;2022-12-07T12:58:46;3.70;;;2.53;;
2766;SDS011;1391;46.742;11.636;2022-12-07T13:04:27;7.07;;;1.87;;
2766;SDS011;1391;46.742;11.636;2022-12-07T13:07:46;2.90;;;1.97;;
2766;SDS011;1391;46.742;11.636;2022-12-07T13:10:39;1.60;;;1.40;;
2766;SDS011;1391;46.742;11.636;2022-12-07T13:13:33;2.60;;;2.00;;
2766;SDS011;1391;46.742;11.636;2022-12-07T13:25:21;2.33;;;2.00;;
2766;SDS011;1391;46.742;11.636;2022-12-07T13:28:13;2.93;;;1.87;;
2766;SDS011;1391;46.742;11.636;2022-12-07T13:30:44;2.10;;;1.90;;
2766;SDS011;1391;46.742;11.636;2022-12-07T13:33:25;2.50;;;1.70;;
2766;SDS011;1391;46.742;11.636;2022-12-07T13:35:55;2.60;;;2.17;;
2766;SDS011;1391;46.742;11.636;2022-12-07T13:38:26;2.23;;;1.73;;
2766;SDS011;1391;46.742;11.636;2022-12-07T13:41:01;2.07;;;1.60;;
2766;SDS011;1391;46.742;11.636;2022-12-07T13:43:30;2.10;;;1.87;;
2766;SDS011;1391;46.742;11.636;2022-12-07T13:45:58;5.10;;;1.40;;
2766;SDS011;1391;46.742;11.636;2022-12-07T13:48:28;3.77;;;1.30;;
2766;SDS011;1391;46.742;11.636;2022-12-07T13:50:59;4.07;;;1.47;;
2766;SDS011;1391;46.742;11.636;2022-12-07T13:53:28;2.43;;;2.00;;
2766;SDS011;1391;46.742;11.636;2022-12-07T13:55:56;3.63;;;3.10;;
2766;SDS011;1391;46.742;11.636;2022-12-07T13:58:26;2.90;;;2.60;;
2766;SDS011;1391;46.742;11.636;2022-12-07T14:00:57;3.03;;;2.00;;
2766;SDS011;1391;46.742;11.636;2022-12-07T14:03:31;1.63;;;1.30;;
2766;SDS011;1391;46.742;11.636;2022-12-07T14:09:05;4.93;;;2.80;;
2766;SDS011;1391;46.742;11.636;2022-12-07T14:11:35;3.30;;;1.90;;
2766;SDS011;1391;46.742;11.636;2022-12-07T14:14:05;3.33;;;1.40;;
2766;SDS011;1391;46.742;11.636;2022-12-07T14:16:37;5.70;;;3.70;;
2766;SDS011;1391;46.742;11.636;2022-12-07T14:19:05;4.43;;;2.87;;
2766;SDS011;1391;46.742;11.636;2022-12-07T14:22:15;3.47;;;1.70;;
2766;SDS011;1391;46.742;11.636;2022-12-07T14:24:49;4.57;;;2.43;;
2766;SDS011;1391;46.742;11.636;2022-12-07T14:27:17;2.57;;;1.50;;
2766;SDS011;1391;46.742;11.636;2022-12-07T14:29:48;2.50;;;1.60;;
2766;SDS011;1391;46.742;11.636;2022-12-07T14:32:18;4.37;;;1.60;;
2766;SDS011;1391;46.742;11.636;2022-12-07T14:34:57;2.47;;;1.40;;
2766;SDS011;1391;46.742;11.636;2022-12-07T14:37:27;8.10;;;1.17;;
2766;SDS011;1391;46.742;11.636;2022-12-07T14:39:56;7.87;;;2.40;;
2766;SDS011;1391;46.742;11.636;2022-12-07T14:42:24;11.17;;;5.33;;
2766;SDS011;1391;46.742;11.636;2022-12-07T14:44:56;2.20;;;1.40;;
2766;SDS011;1391;46.742;11.636;2022-12-07T14:47:24;1.20;;;1.03;;
2766;SDS011;1391;46.742;11.636;2022-12-07T14:49:52;2.17;;;1.63;;
2766;SDS011;1391;46.742;11.636;2022-12-07T14:52:21;4.33;;;2.40;;
2766;SDS011;1391;46.742;11.636;2022-12-07T14:54:51;3.43;;;1.80;;
2766;SDS011;1391;46.742;11.636;2022-12-07T14:57:19;4.53;;;1.60;;
2766;SDS011;1391;46.742;11.636;2022-12-07T14:59:46;3.47;;;2.60;;
2766;SDS011;1391;46.742;11.636;2022-12-07T15:02:15;26.87;;;11.90;;
2766;SDS011;1391;46.742;11.636;2022-12-07T15:04:42;43.03;;;19.53;;
2766;SDS011;1391;46.742;11.636;2022-12-07T15:07:12;64.10;;;26.20;;
2766;SDS011;1391;46.742;11.636;2022-12-07T15:09:44;52.20;;;21.60;;
2766;SDS011;1391;46.742;11.636;2022-12-07T15:12:12;7.50;;;4.20;;
2766;SDS011;1391;46.742;11.636;2022-12-07T15:14:39;3.97;;;2.90;;
2766;SDS011;1391;46.742;11.636;2022-12-07T15:17:07;3.90;;;2.57;;
2766;SDS011;1391;46.742;11.636;2022-12-07T15:19:38;1.83;;;1.20;;
2766;SDS011;1391;46.742;11.636;2022-12-07T15:22:05;4.57;;;2.07;;
2766;SDS011;1391;46.742;11.636;2022-12-07T15:24:35;8.83;;;4.50;;
2766;SDS011;1391;46.742;11.636;2022-12-07T15:27:03;12.33;;;6.00;;
2766;SDS011;1391;46.742;11.636;2022-12-07T15:29:30;17.10;;;8.33;;
2766;SDS011;1391;46.742;11.636;2022-12-07T15:31:57;12.77;;;6.30;;
2766;SDS011;1391;46.742;11.636;2022-12-07T15:34:25;7.53;;;4.23;;
2766;SDS011;1391;46.742;11.636;2022-12-07T15:36:55;5.23;;;3.20;;
2766;SDS011;1391;46.742;11.636;2022-12-07T15:39:22;7.03;;;4.20;;
2766;SDS011;1391;46.742;11.636;2022-12-07T15:41:49;12.13;;;5.80;;
2766;SDS011;1391;46.742;11.636;2022-12-07T15:44:16;14.10;;;5.80;;
2766;SDS011;1391;46.742;11.636;2022-12-07T15:47:01;3.70;;;2.33;;
2766;SDS011;1391;46.742;11.636;2022-12-07T15:49:30;5.83;;;3.03;;
2766;SDS011;1391;46.742;11.636;2022-12-07T15:51:59;3.83;;;2.40;;
2766;SDS011;1391;46.742;11.636;2022-12-07T15:54:26;3.17;;;2.33;;
2766;SDS011;1391;46.742;11.636;2022-12-07T15:56:55;3.30;;;2.43;;
2766;SDS011;1391;46.742;11.636;2022-12-07T15:59:23;5.70;;;3.33;;
2766;SDS011;1391;46.742;11.636;2022-12-07T16:01:53;4.60;;;2.97;;
2766;SDS011;1391;46.742;11.636;2022-12-07T16:04:20;5.30;;;2.60;;
2766;SDS011;1391;46.742;11.636;2022-12-07T16:06:47;3.70;;;2.47;;
2766;SDS011;1391;46.742;11.636;2022-12-07T16:09:17;5.50;;;3.30;;
2766;SDS011;1391;46.742;11.636;2022-12-07T16:11:44;4.27;;;2.93;;
2766;SDS011;1391;46.742;11.636;2022-12-07T16:14:11;5.83;;;3.93;;
2766;SDS011;1391;46.742;11.636;2022-12-07T16:16:40;6.87;;;3.73;;
2766;SDS011;1391;46.742;11.636;2022-12-07T16:19:08;6.97;;;5.30;;
2766;SDS011;1391;46.742;11.636;2022-12-07T16:21:36;4.67;;;3.30;;
2766;SDS011;1391;46.742;11.636;2022-12-07T16:24:03;3.57;;;2.57;;
2766;SDS011;1391;46.742;11.636;2022-12-07T16:26:34;5.70;;;2.90;;
2766;SDS011;1391;46.742;11.636;2022-12-07T16:29:01;4.80;;;3.20;;
2766;SDS011;1391;46.742;11.636;2022-12-07T16:31:29;6.33;;;3.00;;
2766;SDS011;1391;46.742;11.636;2022-12-07T16:33:58;8.43;;;4.20;;
2766;SDS011;1391;46.742;11.636;2022-12-07T16:36:26;10.37;;;5.37;;
2766;SDS011;1391;46.742;11.636;2022-12-07T16:38:53;11.57;;;6.30;;
2766;SDS011;1391;46.742;11.636;2022-12-07T16:41:20;17.13;;;8.20;;
2766;SDS011;1391;46.742;11.636;2022-12-07T16:43:50;18.47;;;10.47;;
2766;SDS011;1391;46.742;11.636;2022-12-07T16:46:17;17.20;;;9.67;;
2766;SDS011;1391;46.742;11.636;2022-12-07T16:48:44;13.47;;;7.57;;
2766;SDS011;1391;46.742;11.636;2022-12-07T16:51:12;14.73;;;6.90;;
2766;SDS011;1391;46.742;11.636;2022-12-07T16:53:41;13.37;;;6.23;;
2766;SDS011;1391;46.742;11.636;2022-12-07T16:56:09;7.10;;;3.73;;
2766;SDS011;1391;46.742;11.636;2022-12-07T16:58:37;8.67;;;4.67;;
2766;SDS011;1391;46.742;11.636;2022-12-07T17:01:12;26.37;;;8.83;;
2766;SDS011;1391;46.742;11.636;2022-12-07T17:03:42;32.63;;;11.67;;
2766;SDS011;1391;46.742;11.636;2022-12-07T17:06:11;27.47;;;9.20;;
2766;SDS011;1391;46.742;11.636;2022-12-07T17:08:40;19.87;;;6.97;;
2766;SDS011;1391;46.742;11.636;2022-12-07T17:11:11;8.23;;;4.53;;
2766;SDS011;1391;46.742;11.636;2022-12-07T17:13:40;7.60;;;3.90;;
2766;SDS011;1391;46.742;11.636;2022-12-07T17:16:26;5.13;;;3.47;;
2766;SDS011;1391;46.742;11.636;2022-12-07T17:18:55;9.27;;;4.70;;
2766;SDS011;1391;46.742;11.636;2022-12-07T17:21:25;9.40;;;5.20;;
2766;SDS011;1391;46.742;11.636;2022-12-07T17:23:57;8.33;;;5.20;;
2766;SDS011;1391;46.742;11.636;2022-12-07T17:26:25;5.77;;;4.17;;
2766;SDS011;1391;46.742;11.636;2022-12-07T17:28:53;5.63;;;3.63;;
2766;SDS011;1391;46.742;11.636;2022-12-07T17:31:21;4.60;;;2.87;;
2766;SDS011;1391;46.742;11.636;2022-12-07T17:33:51;4.13;;;3.03;;
2766;SDS011;1391;46.742;11.636;2022-12-07T17:36:19;3.77;;;2.50;;
2766;SDS011;1391;46.742;11.636;2022-12-07T17:38:48;4.83;;;3.40;;
2766;SDS011;1391;46.742;11.636;2022-12-07T17:41:18;4.80;;;3.60;;
2766;SDS011;1391;46.742;11.636;2022-12-07T17:44:07;5.00;;;2.97;;
2766;SDS011;1391;46.742;11.636;2022-12-07T17:46:36;2.30;;;2.10;;
2766;SDS011;1391;46.742;11.636;2022-12-07T17:49:07;4.13;;;2.87;;
2766;SDS011;1391;46.742;11.636;2022-12-07T17:51:34;4.90;;;3.30;;
2766;SDS011;1391;46.742;11.636;2022-12-07T17:54:19;5.13;;;4.40;;
2766;SDS011;1391;46.742;11.636;2022-12-07T17:56:47;4.93;;;3.93;;
2766;SDS011;1391;46.742;11.636;2022-12-07T17:59:14;4.33;;;3.20;;
2766;SDS011;1391;46.742;11.636;2022-12-07T18:01:42;6.93;;;3.20;;
2766;SDS011;1391;46.742;11.636;2022-12-07T18:04:11;10.10;;;5.20;;
2766;SDS011;1391;46.742;11.636;2022-12-07T18:06:39;8.37;;;5.00;;
2766;SDS011;1391;46.742;11.636;2022-12-07T18:09:06;7.17;;;4.13;;
2766;SDS011;1391;46.742;11.636;2022-12-07T18:11:34;4.43;;;3.13;;
2766;SDS011;1391;46.742;11.636;2022-12-07T18:16:30;3.93;;;2.33;;
2766;SDS011;1391;46.742;11.636;2022-12-07T18:18:59;2.10;;;1.77;;
2766;SDS011;1391;46.742;11.636;2022-12-07T18:21:30;3.40;;;2.57;;
2766;SDS011;1391;46.742;11.636;2022-12-07T18:23:59;2.80;;;2.40;;
2766;SDS011;1391;46.742;11.636;2022-12-07T18:26:28;2.57;;;1.70;;
2766;SDS011;1391;46.742;11.636;2022-12-07T18:28:57;2.30;;;2.00;;
2766;SDS011;1391;46.742;11.636;2022-12-07T18:31:25;3.73;;;2.00;;
2766;SDS011;1391;46.742;11.636;2022-12-07T18:33:52;3.17;;;2.30;;
2766;SDS011;1391;46.742;11.636;2022-12-07T18:36:20;4.13;;;2.43;;
2766;SDS011;1391;46.742;11.636;2022-12-07T18:38:49;5.80;;;3.30;;
2766;SDS011;1391;46.742;11.636;2022-12-07T18:41:17;6.90;;;3.43;;
2766;SDS011;1391;46.742;11.636;2022-12-07T18:43:44;6.50;;;4.00;;
2766;SDS011;1391;46.742;11.636;2022-12-07T18:46:12;8.07;;;4.60;;
2766;SDS011;1391;46.742;11.636;2022-12-07T18:48:41;7.37;;;3.20;;
2766;SDS011;1391;46.742;11.636;2022-12-07T18:51:10;4.00;;;2.80;;
2766;SDS011;1391;46.742;11.636;2022-12-07T18:53:40;2.50;;;2.20;;
2766;SDS011;1391;46.742;11.636;2022-12-07T18:56:09;3.80;;;2.70;;
2766;SDS011;1391;46.742;11.636;2022-12-07T18:58:39;1.97;;;1.77;;
2766;SDS011;1391;46.742;11.636;2022-12-07T19:01:27;4.87;;;3.37;;
2766;SDS011;1391;46.742;11.636;2022-12-07T19:03:55;3.90;;;3.20;;
2766;SDS011;1391;46.742;11.636;2022-12-07T19:06:23;7.93;;;3.00;;
2766;SDS011;1391;46.742;11.636;2022-12-07T19:08:50;9.17;;;4.47;;
2766;SDS011;1391;46.742;11.636;2022-12-07T19:11:19;9.03;;;5.03;;
2766;SDS011;1391;46.742;11.636;2022-12-07T19:14:06;9.67;;;5.27;;
2766;SDS011;1391;46.742;11.636;2022-12-07T19:16:39;6.30;;;3.03;;
2766;SDS011;1391;46.742;11.636;2022-12-07T19:19:07;2.93;;;2.30;;
2766;SDS011;1391;46.742;11.636;2022-12-07T19:21:34;3.97;;;2.30;;
2766;SDS011;1391;46.742;11.636;2022-12-07T19:24:01;8.70;;;4.00;;
2766;SDS011;1391;46.742;11.636;2022-12-07T19:26:31;4.50;;;2.40;;
2766;SDS011;1391;46.742;11.636;2022-12-07T19:28:59;4.50;;;2.37;;
2766;SDS011;1391;46.742;11.636;2022-12-07T19:31:26;3.70;;;2.47;;
2766;SDS011;1391;46.742;11.636;2022-12-07T19:33:53;4.57;;;2.60;;
2766;SDS011;1391;46.742;11.636;2022-12-07T19:36:24;4.53;;;2.27;;
2766;SDS011;1391;46.742;11.636;2022-12-07T19:38:51;2.93;;;1.80;;
2766;SDS011;1391;46.742;11.636;2022-12-07T19:41:19;2.53;;;1.97;;
2766;SDS011;1391;46.742;11.636;2022-12-07T19:44:05;3.00;;;1.70;;
2766;SDS011;1391;46.742;11.636;2022-12-07T19:46:35;2.73;;;2.37;;
2766;SDS011;1391;46.742;11.636;2022-12-07T19:49:03;2.47;;;1.73;;
2766;SDS011;1391;46.742;11.636;2022-12-07T19:51:31;3.83;;;1.87;;
2766;SDS011;1391;46.742;11.636;2022-12-07T19:53:59;3.17;;;1.90;;
2766;SDS011;1391;46.742;11.636;2022-12-07T19:56:28;2.57;;;2.10;;
2766;SDS011;1391;46.742;11.636;2022-12-07T19:58:57;4.17;;;2.20;;
2766;SDS011;1391;46.742;11.636;2022-12-07T20:01:27;2.47;;;1.90;;
2766;SDS011;1391;46.742;11.636;2022-12-07T20:03:55;9.00;;;3.00;;
2766;SDS011;1391;46.742;11.636;2022-12-07T20:06:22;2.53;;;1.97;;
2766;SDS011;1391;46.742;11.636;2022-12-07T20:08:49;4.23;;;2.07;;
2766;SDS011;1391;46.742;11.636;2022-12-07T20:11:18;4.73;;;2.37;;
2766;SDS011;1391;46.742;11.636;2022-12-07T20:14:04;4.23;;;2.57;;
2766;SDS011;1391;46.742;11.636;2022-12-07T20:16:33;2.53;;;1.87;;
2766;SDS011;1391;46.742;11.636;2022-12-07T20:19:01;3.30;;;2.37;;
2766;SDS011;1391;46.742;11.636;2022-12-07T20:21:29;3.83;;;2.30;;
2766;SDS011;1391;46.742;11.636;2022-12-07T20:23:58;5.70;;;2.70;;
2766;SDS011;1391;46.742;11.636;2022-12-07T20:26:26;5.87;;;2.60;;
2766;SDS011;1391;46.742;11.636;2022-12-07T20:28:54;3.80;;;2.57;;
2766;SDS011;1391;46.742;11.636;2022-12-07T20:31:21;4.33;;;2.77;;
2766;SDS011;1391;46.742;11.636;2022-12-07T20:33:50;2.87;;;2.20;;
2766;SDS011;1391;46.742;11.636;2022-12-07T20:36:17;2.40;;;1.73;;
2766;SDS011;1391;46.742;11.636;2022-12-07T20:38:45;2.20;;;2.00;;
2766;SDS011;1391;46.742;11.636;2022-12-07T20:41:13;4.57;;;1.73;;
2766;SDS011;1391;46.742;11.636;2022-12-07T20:43:54;2.67;;;1.80;;
2766;SDS011;1391;46.742;11.636;2022-12-07T20:46:21;4.20;;;2.20;;
2766;SDS011;1391;46.742;11.636;2022-12-07T20:48:51;5.40;;;2.40;;
2766;SDS011;1391;46.742;11.636;2022-12-07T20:51:18;4.20;;;2.97;;
2766;SDS011;1391;46.742;11.636;2022-12-07T20:53:46;4.03;;;2.27;;
2766;SDS011;1391;46.742;11.636;2022-12-07T20:56:17;3.70;;;1.83;;
2766;SDS011;1391;46.742;11.636;2022-12-07T20:58:45;3.17;;;2.00;;
2766;SDS011;1391;46.742;11.636;2022-12-07T21:01:13;3.50;;;1.80;;
2766;SDS011;1391;46.742;11.636;2022-12-07T21:03:40;3.77;;;1.93;;
2766;SDS011;1391;46.742;11.636;2022-12-07T21:06:13;3.13;;;1.93;;
2766;SDS011;1391;46.742;11.636;2022-12-07T21:08:44;2.17;;;1.67;;
2766;SDS011;1391;46.742;11.636;2022-12-07T21:11:14;2.13;;;1.90;;
2766;SDS011;1391;46.742;11.636;2022-12-07T21:13:42;2.87;;;2.00;;
2766;SDS011;1391;46.742;11.636;2022-12-07T21:16:09;2.53;;;1.80;;
2766;SDS011;1391;46.742;11.636;2022-12-07T21:18:39;3.97;;;1.93;;
2766;SDS011;1391;46.742;11.636;2022-12-07T21:21:09;2.47;;;1.80;;
2766;SDS011;1391;46.742;11.636;2022-12-07T21:23:41;3.23;;;2.13;;
2766;SDS011;1391;46.742;11.636;2022-12-07T21:26:09;1.93;;;1.70;;
2766;SDS011;1391;46.742;11.636;2022-12-07T21:28:40;4.57;;;1.87;;
2766;SDS011;1391;46.742;11.636;2022-12-07T21:31:07;3.30;;;2.20;;
2766;SDS011;1391;46.742;11.636;2022-12-07T21:33:35;3.40;;;2.00;;
2766;SDS011;1391;46.742;11.636;2022-12-07T21:36:04;2.60;;;2.10;;
2766;SDS011;1391;46.742;11.636;2022-12-07T21:38:34;3.67;;;2.00;;
2766;SDS011;1391;46.742;11.636;2022-12-07T21:41:10;4.13;;;2.30;;
2766;SDS011;1391;46.742;11.636;2022-12-07T21:43:39;3.80;;;2.03;;
2766;SDS011;1391;46.742;11.636;2022-12-07T21:46:07;2.87;;;1.80;;
2766;SDS011;1391;46.742;11.636;2022-12-07T21:48:35;2.77;;;1.83;;
2766;SDS011;1391;46.742;11.636;2022-12-07T21:51:03;3.60;;;1.80;;
2766;SDS011;1391;46.742;11.636;2022-12-07T21:53:32;3.47;;;1.90;;
2766;SDS011;1391;46.742;11.636;2022-12-07T21:56:00;3.17;;;2.13;;
2766;SDS011;1391;46.742;11.636;2022-12-07T21:58:30;5.10;;;2.07;;
2766;SDS011;1391;46.742;11.636;2022-12-07T22:00:58;2.97;;;1.77;;
2766;SDS011;1391;46.742;11.636;2022-12-07T22:03:25;3.20;;;1.93;;
2766;SDS011;1391;46.742;11.636;2022-12-07T22:05:58;2.53;;;1.80;;
2766;SDS011;1391;46.742;11.636;2022-12-07T22:08:27;2.40;;;1.87;;
2766;SDS011;1391;46.742;11.636;2022-12-07T22:10:59;13.33;;;2.20;;
2766;SDS011;1391;46.742;11.636;2022-12-07T22:13:27;1.93;;;1.80;;
2766;SDS011;1391;46.742;11.636;2022-12-07T22:16:17;3.17;;;1.93;;
2766;SDS011;1391;46.742;11.636;2022-12-07T22:18:43;3.07;;;2.20;;
2766;SDS011;1391;46.742;11.636;2022-12-07T22:21:11;9.00;;;3.90;;
2766;SDS011;1391;46.742;11.636;2022-12-07T22:23:38;9.77;;;4.47;;
2766;SDS011;1391;46.742;11.636;2022-12-07T22:26:06;9.93;;;3.80;;
2766;SDS011;1391;46.742;11.636;2022-12-07T22:28:36;7.27;;;3.00;;
2766;SDS011;1391;46.742;11.636;2022-12-07T22:31:04;4.83;;;2.73;;
2766;SDS011;1391;46.742;11.636;2022-12-07T22:33:33;3.70;;;2.30;;
2766;SDS011;1391;46.742;11.636;2022-12-07T22:36:01;3.00;;;2.07;;
2766;SDS011;1391;46.742;11.636;2022-12-07T22:38:29;1.63;;;1.53;;
2766;SDS011;1391;46.742;11.636;2022-12-07T22:40:57;2.60;;;1.53;;
2766;SDS011;1391;46.742;11.636;2022-12-07T22:43:25;2.40;;;1.87;;
2766;SDS011;1391;46.742;11.636;2022-12-07T22:45:55;1.93;;;1.70;;
2766;SDS011;1391;46.742;11.636;2022-12-07T22:48:24;3.23;;;1.90;;
2766;SDS011;1391;46.742;11.636;2022-12-07T22:50:54;2.60;;;1.77;;
2766;SDS011;1391;46.742;11.636;2022-12-07T22:53:22;2.83;;;1.60;;
2766;SDS011;1391;46.742;11.636;2022-12-07T22:55:50;2.37;;;1.63;;
2766;SDS011;1391;46.742;11.636;2022-12-07T22:58:18;2.43;;;1.90;;
2766;SDS011;1391;46.742;11.636;2022-12-07T23:00:47;4.33;;;1.87;;
2766;SDS011;1391;46.742;11.636;2022-12-07T23:03:14;2.70;;;1.93;;
2766;SDS011;1391;46.742;11.636;2022-12-07T23:05:42;2.13;;;1.70;;
2766;SDS011;1391;46.742;11.636;2022-12-07T23:08:11;4.07;;;1.73;;
2766;SDS011;1391;46.742;11.636;2022-12-07T23:10:40;1.43;;;1.27;;
2766;SDS011;1391;46.742;11.636;2022-12-07T23:13:08;1.73;;;1.43;;
2766;SDS011;1391;46.742;11.636;2022-12-07T23:15:55;2.20;;;1.70;;
2766;SDS011;1391;46.742;11.636;2022-12-07T23:18:22;1.97;;;1.50;;
2766;SDS011;1391;46.742;11.636;2022-12-07T23:20:49;5.60;;;1.80;;
2766;SDS011;1391;46.742;11.636;2022-12-07T23:23:18;1.43;;;1.33;;
2766;SDS011;1391;46.742;11.636;2022-12-07T23:25:45;2.43;;;1.60;;
2766;SDS011;1391;46.742;11.636;2022-12-07T23:28:13;2.43;;;1.60;;
2766;SDS011;1391;46.742;11.636;2022-12-07T23:30:40;6.03;;;1.33;;
2766;SDS011;1391;46.742;11.636;2022-12-07T23:33:07;1.73;;;1.40;;
2766;SDS011;1391;46.742;11.636;2022-12-07T23:35:34;4.70;;;1.67;;
2766;SDS011;1391;46.742;11.636;2022-12-07T23:38:02;4.67;;;2.17;;
2766;SDS011;1391;46.742;11.636;2022-12-07T23:40:31;5.20;;;1.63;;
2766;SDS011;1391;46.742;11.636;2022-12-07T23:42:58;3.07;;;1.90;;
2766;SDS011;1391;46.742;11.636;2022-12-07T23:45:26;3.93;;;2.03;;